Terminal Aerodrome Forecast
Issued by NWS

Home | Current Version | Previous Version | Text Only | Print | Product List | Glossary On
Versions: 1 2 3 4 5 6 7 8 9 10 11 12 13 14 15 16 17 18 19
903
FTUS46 KLOX 212349
TAFVNY
TAF
KVNY 212349Z 2200/2224 14008KT P6SM SKC
     FM220700 VRB03KT P6SM SKC
     FM221300 VRB03KT 6SM HZ OVC009
     FM221500 VRB03KT P6SM BKN012
     FM221700 VRB03KT P6SM SKC
     FM222100 14008KT P6SM SKC=

USA.gov is the U.S. government's official web portal to all federal, state and local government web resources and services.